createdAt,value
2022-08-03T00:00:45.731Z,38.27
2022-08-03T00:03:17.860Z,38.75
2022-08-03T00:06:04.176Z,38.23
2022-08-03T00:08:34.386Z,38.44
2022-08-03T00:11:09.738Z,38.18
2022-08-03T00:13:39.290Z,38.66
2022-08-03T00:16:08.877Z,38.84
2022-08-03T00:18:40.914Z,38.72
2022-08-03T00:21:10.360Z,38.76
2022-08-03T00:23:52.162Z,38.60
2022-08-03T00:26:22.398Z,38.96
2022-08-03T00:28:52.088Z,39.67
2022-08-03T00:31:39.720Z,39.35
2022-08-03T00:34:13.566Z,39.80
2022-08-03T00:36:43.045Z,40.01
2022-08-03T00:39:12.484Z,40.25
2022-08-03T00:41:41.958Z,40.01
2022-08-03T00:44:11.398Z,40.07
2022-08-03T00:46:40.952Z,40.72
2022-08-03T00:49:13.084Z,40.94
2022-08-03T00:51:42.546Z,41.15
2022-08-03T00:54:12.556Z,41.40
2022-08-03T00:56:59.902Z,41.54
2022-08-03T00:59:30.148Z,41.35
2022-08-03T01:01:59.707Z,41.52
2022-08-03T01:04:31.810Z,41.17
2022-08-03T01:07:05.889Z,41.47
2022-08-03T01:09:47.504Z,41.86
2022-08-03T01:12:19.038Z,41.74
2022-08-03T01:14:52.040Z,41.92
2022-08-03T01:17:23.159Z,42.16
2022-08-03T01:19:57.115Z,42.15
2022-08-03T01:22:43.338Z,42.02
2022-08-03T01:25:16.915Z,41.84
2022-08-03T01:27:52.716Z,41.72
2022-08-03T01:30:24.745Z,42.15
2022-08-03T01:33:01.864Z,42.23
2022-08-03T01:35:38.334Z,42.61
2022-08-03T01:38:10.280Z,42.89
2022-08-03T01:40:39.758Z,42.87
2022-08-03T01:43:09.478Z,42.89
2022-08-03T01:45:41.545Z,42.95
2022-08-03T01:48:10.995Z,42.39
2022-08-03T01:50:40.460Z,42.40
2022-08-03T01:53:10.090Z,42.71
2022-08-03T01:58:08.770Z,42.83
2022-08-03T02:00:40.905Z,43.25
2022-08-03T02:03:10.681Z,43.13
2022-08-03T02:05:40.111Z,43.32
2022-08-03T02:08:10.462Z,43.33
2022-08-03T02:10:39.936Z,43.19
2022-08-03T02:13:10.067Z,43.34
2022-08-03T02:15:42.181Z,43.33
2022-08-03T02:18:12.738Z,43.17
2022-08-03T02:20:42.222Z,43.51
2022-08-03T02:23:11.705Z,43.21
2022-08-03T02:25:47.402Z,43.58
2022-08-03T02:28:19.418Z,43.78
2022-08-03T02:30:55.427Z,43.92
2022-08-03T02:33:28.235Z,44.35
2022-08-03T02:35:57.680Z,44.41
2022-08-03T02:38:30.078Z,44.43
2022-08-03T02:40:59.560Z,44.54
2022-08-03T02:43:29.048Z,44.36
2022-08-03T02:46:21.428Z,44.61
2022-08-03T02:48:52.163Z,44.39
2022-08-03T02:51:21.911Z,44.82
2022-08-03T02:53:51.534Z,45.19
2022-08-03T02:56:20.981Z,45.26
2022-08-03T02:58:50.429Z,45.25
2022-08-03T03:01:22.846Z,45.55
2022-08-03T03:03:53.502Z,45.55
2022-08-03T03:06:23.014Z,45.71
2022-08-03T03:08:59.455Z,45.94
2022-08-03T03:11:29.241Z,46.18
2022-08-03T03:13:58.730Z,45.96
2022-08-03T03:16:31.133Z,45.83
2022-08-03T03:19:00.579Z,46.30
2022-08-03T03:21:30.027Z,46.04
2022-08-03T03:23:59.467Z,46.11
2022-08-03T03:26:28.921Z,46.17
2022-08-03T03:28:58.680Z,46.83
2022-08-03T03:31:30.723Z,46.68
2022-08-03T03:34:00.652Z,47.08
2022-08-03T03:36:30.292Z,46.81
2022-08-03T03:38:59.998Z,47.20
2022-08-03T03:41:45.542Z,47.12
2022-08-03T03:44:15.118Z,47.03
2022-08-03T03:46:47.142Z,46.63
2022-08-03T03:49:18.777Z,46.87
2022-08-03T03:51:48.263Z,46.96
2022-08-03T03:54:17.697Z,46.95
2022-08-03T03:56:47.174Z,46.70
2022-08-03T03:59:16.615Z,46.62
2022-08-03T04:01:48.683Z,46.88
2022-08-03T04:04:41.294Z,46.65
2022-08-03T04:07:23.243Z,46.99
2022-08-03T04:10:14.088Z,46.90
2022-08-03T04:12:49.966Z,47.17
2022-08-03T04:15:20.551Z,47.28
2022-08-03T04:17:52.939Z,47.31
2022-08-03T04:20:22.927Z,47.32
2022-08-03T04:22:52.588Z,47.50
2022-08-03T04:25:22.013Z,47.96
2022-08-03T04:28:07.627Z,47.92
2022-08-03T04:30:47.543Z,47.75
2022-08-03T04:33:19.819Z,48.09
2022-08-03T04:35:54.749Z,47.77
2022-08-03T04:38:32.640Z,47.97
2022-08-03T04:41:02.221Z,48.23
2022-08-03T04:43:31.699Z,48.29
2022-08-03T04:46:01.129Z,48.38
2022-08-03T04:48:33.159Z,48.77
2022-08-03T04:51:04.505Z,48.64
2022-08-03T04:53:33.999Z,48.67
2022-08-03T04:56:07.148Z,48.75
2022-08-03T04:58:36.652Z,48.76
2022-08-03T05:01:06.167Z,48.58
2022-08-03T05:03:38.205Z,48.36
2022-08-03T05:06:11.043Z,48.40
2022-08-03T05:08:46.395Z,48.34
2022-08-03T05:11:17.083Z,48.37
2022-08-03T05:13:46.635Z,48.41
2022-08-03T05:16:16.502Z,48.17
2022-08-03T05:18:48.732Z,48.45
2022-08-03T05:21:18.202Z,48.18
2022-08-03T05:23:47.722Z,47.76
2022-08-03T05:26:17.193Z,48.41
2022-08-03T05:28:50.611Z,48.29
2022-08-03T05:31:21.167Z,47.89
2022-08-03T05:33:53.203Z,47.44
2022-08-03T05:36:22.805Z,47.30
2022-08-03T05:38:52.297Z,47.26
2022-08-03T05:41:36.427Z,46.96
2022-08-03T05:44:07.299Z,46.25
2022-08-03T05:46:36.753Z,45.91
2022-08-03T05:49:08.857Z,45.37
2022-08-03T05:51:38.382Z,45.17
2022-08-03T05:54:07.878Z,45.01
2022-08-03T05:56:37.317Z,44.89
2022-08-03T05:59:28.739Z,44.56
2022-08-03T06:01:56.282Z,44.09
2022-08-03T06:04:28.380Z,43.29
2022-08-03T06:06:58.548Z,43.36
2022-08-03T06:09:56.527Z,42.91
2022-08-03T06:12:17.843Z,42.36
2022-08-03T06:14:47.439Z,42.77
2022-08-03T06:17:16.935Z,41.93
2022-08-03T06:19:48.962Z,42.24
2022-08-03T06:22:18.604Z,41.54
2022-08-03T06:24:53.499Z,41.62
2022-08-03T06:27:36.416Z,41.25
2022-08-03T06:30:07.776Z,40.77
2022-08-03T06:32:37.280Z,40.09
2022-08-03T06:35:10.005Z,39.62
2022-08-03T06:37:48.826Z,39.33
2022-08-03T06:40:21.905Z,39.15
2022-08-03T06:42:54.111Z,38.92
2022-08-03T06:45:23.821Z,38.72
2022-08-03T06:48:02.956Z,37.95
2022-08-03T06:50:35.074Z,37.97
2022-08-03T06:53:04.656Z,38.73
2022-08-03T06:55:34.175Z,38.73
2022-08-03T06:58:11.736Z,38.70
2022-08-03T07:00:41.166Z,38.08
2022-08-03T07:03:10.615Z,37.72
2022-08-03T07:05:42.778Z,37.65
2022-08-03T07:08:12.260Z,36.78
2022-08-03T07:10:41.704Z,37.51
2022-08-03T07:13:11.143Z,37.28
2022-08-03T07:15:55.828Z,37.12
2022-08-03T07:18:29.947Z,37.13
2022-08-03T07:21:02.254Z,35.76
2022-08-03T07:23:31.724Z,34.63
2022-08-03T07:26:01.206Z,35.14
2022-08-03T07:28:30.731Z,34.34
2022-08-03T07:31:00.195Z,34.78
2022-08-03T07:33:29.691Z,33.89
2022-08-03T07:36:01.861Z,33.34
2022-08-03T07:38:31.557Z,33.09
2022-08-03T07:41:00.986Z,32.83
2022-08-03T07:43:30.507Z,32.72
2022-08-03T07:45:59.989Z,32.24
2022-08-03T07:48:29.454Z,32.09
2022-08-03T07:50:58.904Z,31.03
2022-08-03T07:53:30.960Z,30.22
2022-08-03T07:56:00.443Z,30.58
2022-08-03T07:58:30.803Z,30.57
2022-08-03T08:01:00.302Z,29.35
2022-08-03T08:03:29.806Z,30.21
2022-08-03T08:06:19.368Z,29.62
2022-08-03T08:08:51.530Z,29.91
2022-08-03T08:11:22.294Z,29.26
2022-08-03T08:13:51.522Z,28.02
2022-08-03T08:16:20.974Z,29.02
2022-08-03T08:18:50.408Z,28.37
2022-08-03T08:21:19.871Z,28.95
2022-08-03T08:23:56.946Z,28.50
2022-08-03T08:26:26.695Z,28.31
2022-08-03T08:28:56.180Z,27.63
2022-08-03T08:31:25.642Z,28.09
2022-08-03T08:34:04.925Z,27.59
2022-08-03T08:36:35.360Z,26.23
2022-08-03T08:39:07.383Z,26.23
2022-08-03T08:41:36.820Z,26.91
2022-08-03T08:44:08.229Z,26.68
2022-08-03T08:46:37.683Z,26.76
2022-08-03T08:49:07.131Z,26.00
2022-08-03T08:51:59.095Z,25.16
2022-08-03T08:54:29.617Z,25.30
2022-08-03T08:56:59.392Z,24.64
2022-08-03T08:59:47.745Z,25.15
2022-08-03T09:02:18.384Z,24.51
2022-08-03T09:04:48.890Z,24.33
2022-08-03T09:07:29.145Z,24.76
2022-08-03T09:10:11.058Z,23.66
2022-08-03T09:12:43.174Z,23.93
2022-08-03T09:15:23.957Z,23.49
2022-08-03T09:17:53.624Z,22.70
2022-08-03T09:20:23.555Z,21.54
2022-08-03T09:23:01.287Z,20.44
2022-08-03T09:25:34.579Z,19.92
2022-08-03T09:28:11.122Z,18.73
2022-08-03T09:30:41.224Z,17.84
2022-08-03T09:33:11.633Z,16.07
2022-08-03T09:35:53.539Z,14.67
2022-08-03T09:38:26.258Z,13.59
2022-08-03T09:41:00.914Z,12.53
2022-08-03T09:43:30.683Z,11.96
2022-08-03T09:46:05.555Z,11.12
2022-08-03T09:48:36.840Z,10.33
2022-08-03T09:51:13.694Z,9.93
2022-08-03T09:54:00.512Z,9.30
2022-08-03T09:56:43.750Z,8.64
2022-08-03T09:59:13.588Z,8.93
2022-08-03T10:01:44.342Z,9.07
2022-08-03T10:04:17.632Z,8.69
2022-08-03T10:06:47.497Z,7.88
2022-08-03T10:09:17.843Z,7.04
2022-08-03T10:11:50.237Z,6.89
2022-08-03T10:14:22.622Z,6.81
2022-08-03T10:16:52.365Z,6.87
2022-08-03T10:19:21.830Z,6.69
2022-08-03T10:21:56.195Z,6.45
2022-08-03T10:24:27.924Z,6.87
2022-08-03T10:27:06.029Z,6.98
2022-08-03T10:29:39.789Z,6.58
2022-08-03T10:32:14.631Z,5.97
2022-08-03T10:34:45.006Z,5.49
2022-08-03T10:37:14.859Z,5.90
2022-08-03T10:39:53.549Z,6.40
2022-08-03T10:42:27.261Z,7.58
2022-08-03T10:45:07.423Z,7.95
2022-08-03T10:47:37.471Z,8.53
2022-08-03T10:50:07.860Z,10.19
2022-08-03T10:52:41.280Z,11.28
2022-08-03T10:55:44.788Z,12.45
2022-08-03T10:58:30.425Z,13.76
2022-08-03T11:01:00.530Z,14.21
2022-08-03T11:03:30.030Z,14.73
2022-08-03T11:06:19.034Z,14.94
2022-08-03T11:08:48.834Z,16.41
2022-08-03T11:11:31.323Z,15.90
2022-08-03T11:14:05.483Z,16.17
2022-08-03T11:16:37.091Z,16.59
2022-08-03T11:19:07.467Z,17.00
2022-08-03T11:21:55.696Z,16.89
2022-08-03T11:24:57.589Z,16.68
2022-08-03T11:27:27.471Z,16.53
2022-08-03T11:30:01.110Z,16.96
2022-08-03T11:32:56.264Z,16.33
2022-08-03T11:35:26.411Z,16.78
2022-08-03T11:38:08.656Z,16.71
2022-08-03T11:40:39.524Z,16.95
2022-08-03T11:43:09.867Z,16.72
2022-08-03T11:45:41.727Z,15.82
2022-08-03T11:48:17.383Z,16.02
2022-08-03T11:50:47.908Z,16.53
2022-08-03T11:53:18.741Z,17.00
2022-08-03T11:55:49.025Z,17.70
2022-08-03T11:59:19.544Z,17.85
2022-08-03T12:01:21.211Z,17.56
2022-08-03T12:03:52.605Z,18.13
2022-08-03T12:06:23.890Z,17.98
2022-08-03T12:08:53.315Z,17.29
2022-08-03T12:11:22.761Z,17.17
2022-08-03T12:14:44.868Z,16.95
2022-08-03T12:16:44.749Z,16.48
2022-08-03T12:19:14.195Z,17.56
2022-08-03T12:21:56.560Z,16.83
2022-08-03T12:24:29.529Z,17.54
2022-08-03T12:26:59.991Z,17.57
2022-08-03T12:29:29.894Z,17.22
2022-08-03T12:32:02.284Z,17.61
2022-08-03T12:34:49.415Z,16.50
2022-08-03T12:37:23.384Z,17.70
2022-08-03T12:40:01.329Z,18.09
2022-08-03T12:42:35.686Z,17.26
2022-08-03T12:45:23.300Z,17.07
2022-08-03T12:47:56.415Z,16.51
2022-08-03T12:50:32.289Z,17.20
2022-08-03T12:53:01.986Z,17.67
2022-08-03T12:55:56.734Z,17.03
2022-08-03T12:58:33.658Z,16.47
2022-08-03T13:01:05.121Z,16.58
2022-08-03T13:03:49.915Z,17.18
2022-08-03T13:06:23.358Z,16.52
2022-08-03T13:08:52.930Z,16.55
2022-08-03T13:11:50.532Z,17.01
2022-08-03T13:14:19.431Z,17.07
2022-08-03T13:16:49.929Z,17.60
2022-08-03T13:19:21.998Z,17.72
2022-08-03T13:21:53.476Z,17.52
2022-08-03T13:24:33.273Z,18.29
2022-08-03T13:28:00.041Z,18.30
2022-08-03T13:29:52.997Z,18.17
2022-08-03T13:32:22.774Z,18.04
2022-08-03T13:34:54.823Z,18.49
2022-08-03T13:37:24.612Z,18.70
2022-08-03T13:39:59.501Z,19.04
2022-08-03T13:42:31.376Z,17.97
2022-08-03T13:45:00.895Z,17.11
2022-08-03T13:47:30.489Z,17.54
2022-08-03T13:50:03.254Z,18.06
2022-08-03T13:52:34.129Z,17.08
2022-08-03T13:55:03.743Z,18.04
2022-08-03T13:58:02.918Z,18.28
2022-08-03T14:00:27.513Z,17.30
2022-08-03T14:03:07.963Z,17.86
2022-08-03T14:05:45.083Z,17.47
2022-08-03T14:08:14.703Z,18.07
2022-08-03T14:10:45.161Z,18.83
2022-08-03T14:13:16.863Z,18.63
2022-08-03T14:15:50.195Z,18.65
2022-08-03T14:18:27.839Z,19.05
2022-08-03T14:21:05.915Z,19.00
2022-08-03T14:23:36.173Z,18.87
2022-08-03T14:26:05.670Z,19.11
2022-08-03T14:28:35.171Z,18.75
2022-08-03T14:31:08.353Z,18.63
2022-08-03T14:33:45.117Z,18.21
2022-08-03T14:36:17.147Z,18.85
2022-08-03T14:38:46.717Z,18.73
2022-08-03T14:41:20.258Z,18.48
2022-08-03T14:44:02.174Z,18.92
2022-08-03T14:46:32.544Z,18.46
2022-08-03T14:50:34.713Z,18.39
2022-08-03T14:51:54.204Z,18.65
2022-08-03T14:54:24.367Z,18.06
2022-08-03T14:56:53.862Z,17.66
2022-08-03T14:59:23.320Z,17.91
2022-08-03T15:02:05.168Z,18.60
2022-08-03T15:04:37.175Z,17.78
2022-08-03T15:07:09.271Z,18.54
2022-08-03T15:09:38.754Z,18.19
2022-08-03T15:12:08.755Z,18.91
2022-08-03T15:14:38.195Z,19.13
2022-08-03T15:17:08.225Z,18.91
2022-08-03T15:20:02.117Z,18.69
2022-08-03T15:22:34.936Z,17.94
2022-08-03T15:26:32.120Z,18.30
2022-08-03T15:28:03.593Z,18.56
2022-08-03T15:30:37.041Z,18.44
2022-08-03T15:33:06.643Z,18.18
2022-08-03T15:35:38.918Z,17.79
2022-08-03T15:38:10.977Z,18.06
2022-08-03T15:40:40.420Z,17.89
2022-08-03T15:43:09.917Z,18.24
2022-08-03T15:45:42.111Z,18.42
2022-08-03T15:48:11.690Z,18.39
2022-08-03T15:50:41.270Z,18.69
2022-08-03T15:53:15.787Z,19.02
2022-08-03T15:55:45.293Z,18.61
2022-08-03T15:59:10.751Z,19.03
2022-08-03T16:01:04.867Z,19.07
2022-08-03T16:03:34.698Z,19.31
2022-08-03T16:06:04.824Z,18.98
2022-08-03T16:08:36.809Z,19.29
2022-08-03T16:11:06.241Z,19.45
2022-08-03T16:14:12.448Z,18.77
2022-08-03T16:16:25.196Z,18.59
2022-08-03T16:18:54.667Z,19.06
2022-08-03T16:21:24.131Z,19.14
2022-08-03T16:24:01.956Z,19.08
2022-08-03T16:26:32.369Z,19.18
2022-08-03T16:29:04.541Z,19.32
2022-08-03T16:31:52.515Z,18.80
2022-08-03T16:34:21.970Z,19.30
2022-08-03T16:36:51.457Z,19.55
2022-08-03T16:39:23.613Z,19.22
2022-08-03T16:41:53.813Z,19.32
2022-08-03T16:44:30.755Z,19.15
2022-08-03T16:47:00.223Z,19.30
2022-08-03T16:49:53.989Z,18.79
2022-08-03T16:52:19.229Z,18.95
2022-08-03T16:54:53.224Z,19.36
2022-08-03T16:57:56.732Z,19.61
2022-08-03T17:00:32.958Z,19.99
2022-08-03T17:03:16.377Z,19.64
2022-08-03T17:05:50.964Z,19.42
2022-08-03T17:08:26.603Z,19.65
2022-08-03T17:10:59.428Z,19.40
2022-08-03T17:13:39.101Z,19.42
2022-08-03T17:16:08.941Z,19.53
2022-08-03T17:18:42.244Z,19.73
2022-08-03T17:21:17.054Z,19.20
2022-08-03T17:23:48.294Z,19.65
2022-08-03T17:26:21.906Z,19.72
2022-08-03T17:28:57.348Z,19.68
2022-08-03T17:31:31.356Z,19.83
2022-08-03T17:34:04.329Z,20.60
2022-08-03T17:37:02.034Z,20.16
2022-08-03T17:39:48.517Z,20.11
2022-08-03T17:42:29.490Z,20.57
2022-08-03T17:45:02.403Z,20.45
2022-08-03T17:47:41.935Z,20.33
2022-08-03T17:50:24.341Z,19.95
2022-08-03T17:53:00.831Z,20.20
2022-08-03T17:55:55.831Z,20.42
2022-08-03T17:58:26.482Z,20.74
2022-08-03T18:01:59.545Z,20.72
2022-08-03T18:03:59.925Z,20.45
2022-08-03T18:06:31.137Z,21.19
2022-08-03T18:09:05.139Z,20.92
2022-08-03T18:11:51.743Z,21.76
2022-08-03T18:14:28.892Z,22.18
2022-08-03T18:17:01.484Z,22.12
2022-08-03T18:20:02.837Z,22.10
2022-08-03T18:22:25.276Z,22.30
2022-08-03T18:24:55.853Z,22.18
2022-08-03T18:27:45.436Z,21.91
2022-08-03T18:30:18.105Z,22.58
2022-08-03T18:33:01.107Z,22.28
2022-08-03T18:35:53.542Z,22.31
2022-08-03T18:38:23.795Z,22.50
2022-08-03T18:40:53.589Z,22.63
2022-08-03T18:43:46.260Z,22.55
2022-08-03T18:46:25.810Z,22.82
2022-08-03T18:48:57.292Z,23.29
2022-08-03T18:51:33.771Z,23.46
2022-08-03T18:54:06.477Z,23.48
2022-08-03T18:56:42.549Z,23.20
2022-08-03T18:59:13.381Z,23.66
2022-08-03T19:01:58.235Z,23.33
2022-08-03T19:04:34.071Z,23.58
2022-08-03T19:07:07.945Z,24.03
2022-08-03T19:09:40.701Z,24.15
2022-08-03T19:12:27.284Z,23.90
2022-08-03T19:15:03.836Z,23.96
2022-08-03T19:17:38.717Z,23.85
2022-08-03T19:20:10.378Z,24.08
2022-08-03T19:22:40.311Z,24.08
2022-08-03T19:25:15.397Z,23.90
2022-08-03T19:27:44.844Z,24.51
2022-08-03T19:30:34.889Z,24.39
2022-08-03T19:33:07.277Z,24.08
2022-08-03T19:35:51.429Z,24.29
2022-08-03T19:38:28.780Z,24.75
2022-08-03T19:41:00.152Z,24.86
2022-08-03T19:43:32.947Z,25.08
2022-08-03T19:46:06.301Z,25.07
2022-08-03T19:48:39.295Z,25.05
2022-08-03T19:51:12.709Z,25.03
2022-08-03T19:53:44.900Z,25.26
2022-08-03T19:56:14.710Z,25.15
2022-08-03T19:58:45.367Z,24.83
2022-08-03T20:01:22.815Z,25.19
2022-08-03T20:03:55.222Z,25.19
2022-08-03T20:06:25.702Z,25.39
2022-08-03T20:08:55.201Z,25.72
2022-08-03T20:11:28.818Z,25.81
2022-08-03T20:13:58.448Z,26.30
2022-08-03T20:16:27.909Z,26.27
2022-08-03T20:18:59.970Z,26.56
2022-08-03T20:21:30.011Z,27.17
2022-08-03T20:24:23.266Z,27.20
2022-08-03T20:26:52.501Z,26.85
2022-08-03T20:29:23.831Z,26.75
2022-08-03T20:32:12.484Z,27.67
2022-08-03T20:34:44.635Z,26.98
2022-08-03T20:37:18.895Z,27.50
2022-08-03T20:39:49.565Z,27.24
2022-08-03T20:42:21.683Z,27.68
2022-08-03T20:45:05.128Z,27.67
2022-08-03T20:47:41.646Z,28.61
2022-08-03T20:50:23.136Z,28.78
2022-08-03T20:52:52.613Z,29.04
2022-08-03T20:55:47.852Z,29.53
2022-08-03T20:58:11.850Z,29.51
2022-08-03T21:00:41.703Z,29.64
2022-08-03T21:03:12.786Z,30.29
2022-08-03T21:05:51.122Z,29.71
2022-08-03T21:08:21.225Z,30.13
2022-08-03T21:10:51.785Z,29.92
2022-08-03T21:13:24.777Z,30.18
2022-08-03T21:16:02.934Z,30.36
2022-08-03T21:18:46.262Z,30.49
2022-08-03T21:21:19.534Z,30.35
2022-08-03T21:23:52.682Z,30.52
2022-08-03T21:26:22.920Z,30.13
2022-08-03T21:28:53.187Z,29.69
2022-08-03T21:31:25.296Z,29.26
2022-08-03T21:33:56.663Z,29.13
2022-08-03T21:36:28.757Z,29.75
2022-08-03T21:38:58.737Z,29.47
2022-08-03T21:41:28.908Z,29.86
2022-08-03T21:43:58.428Z,29.93
2022-08-03T21:46:28.057Z,29.59
2022-08-03T21:50:04.980Z,30.19
2022-08-03T21:51:51.070Z,29.88
2022-08-03T21:54:21.069Z,29.73
2022-08-03T21:56:51.205Z,29.68
2022-08-03T21:59:21.495Z,30.23
2022-08-03T22:01:55.142Z,29.74
2022-08-03T22:04:42.679Z,30.05
2022-08-03T22:07:20.669Z,30.20
2022-08-03T22:09:52.180Z,30.36
2022-08-03T22:12:24.409Z,30.70
2022-08-03T22:15:01.099Z,30.70
2022-08-03T22:17:55.487Z,30.68
2022-08-03T22:20:21.585Z,30.89
2022-08-03T22:22:57.029Z,30.83
2022-08-03T22:25:30.585Z,30.90
2022-08-03T22:28:00.824Z,30.84
2022-08-03T22:30:31.682Z,31.25
2022-08-03T22:33:01.401Z,31.21
2022-08-03T22:35:30.857Z,31.21
2022-08-03T22:38:02.896Z,31.43
2022-08-03T22:40:32.378Z,31.47
2022-08-03T22:43:03.423Z,31.43
2022-08-03T22:46:07.428Z,31.78
2022-08-03T22:48:23.095Z,31.85
2022-08-03T22:50:52.535Z,32.00
2022-08-03T22:53:24.744Z,32.06
2022-08-03T22:55:54.422Z,32.29
2022-08-03T22:58:23.891Z,32.37
2022-08-03T23:00:55.933Z,32.76
2022-08-03T23:03:58.889Z,32.48
2022-08-03T23:06:16.741Z,32.64
2022-08-03T23:08:49.071Z,32.96
2022-08-03T23:11:18.601Z,32.93
2022-08-03T23:13:48.537Z,32.78
2022-08-03T23:16:28.934Z,32.91
2022-08-03T23:18:59.208Z,32.54
2022-08-03T23:22:00.119Z,32.91
2022-08-03T23:24:29.490Z,33.06
2022-08-03T23:26:59.685Z,32.66
2022-08-03T23:29:29.253Z,32.99
2022-08-03T23:31:59.414Z,33.03
2022-08-03T23:34:41.447Z,33.24
2022-08-03T23:37:10.895Z,33.32
2022-08-03T23:39:42.934Z,33.06
2022-08-03T23:42:12.369Z,33.75
2022-08-03T23:44:41.820Z,33.70
2022-08-03T23:47:11.256Z,33.70
2022-08-03T23:49:40.716Z,34.03
2022-08-03T23:52:12.085Z,34.03
2022-08-03T23:55:00.356Z,34.32
2022-08-03T23:57:32.352Z,34.71
